Nearby METAR Reports

 

NZCH - Christchurch Int, New Zealand
Distance from station: W 10km
Updated: 29 Nov 2020 17:30
Mostly cloudy
Mostly cloudy
 Wind from SSW
Wind: SSW 19 km/h
Temperature: 17°C
Dew Point: 9°C
Humidity: 59%
Barometer: 1002 hPa
Clouds: Mostly cloudy
Visibility: 10 km
Cloud details: Mostly cloudy 2134 m
2020/11/29 04:30 NZCH 290430Z AUTO 20010KT 9999 BKN070/// 17/09 Q1002 BECMG FM0600 06010KT